PWSweather.com
Personal Weather Stations
Station Observations
KJ4AJP
Beautiful Downtown Gardner, Martin, TN 38237

Beautiful Downtown GardnerMartin, TN 38237

Lat: 36.358, Lon: -88.8994

Elevation: 384.3

Station Type: TP1080WC

http://weather.mambm.com/

High Low Average
Temperature 33.1°F0.6°C 23.0°F-5.0°C 30.2°F-1.0°C
Dew Point 32.8°F0.4°C 22.8°F-5.1°C 29.3°F-1.5°C
Winds 10.7 mph 17.2 kmh Calm Calm 3.0 mph ESE4.8 kmh ESE
Wind Gusts 19.7 mph31.7 kmh -- 10.0 mph16.1 kmh
Humidity 99% 90% 96%
Pressure 30.48 in1032.2 mb 30.06 in1017.9 mb -
Precipitation 0.26 in6.6 mm - -
Hour Temp Dew Point Humidity Winds Wind Gusts Pressure Precip Precip Rate Daily Precip Total
12:00 AM 33.1°F0.6°C 32.8°F0.4°C 99% 2.2 mph N3.5 kmh N 8.3 mph13.4 kmh 30.08 in1018.6 mb 0.04 in1.0 mm 0.00 in0.0 mm 0.04 in1.0 mm
12:15 AM 32.9°F0.5°C 32.7°F0.4°C 99% 3.8 mph N6.1 kmh N 10.7 mph17.2 kmh 30.07 in1018.3 mb 0.06 in1.5 mm 0.08 in2.0 mm 0.02 in0.5 mm
12:30 AM 32.9°F0.5°C 32.7°F0.4°C 99% 2.2 mph N3.5 kmh N 9.8 mph15.8 kmh 30.06 in1017.9 mb 0.06 in1.5 mm 0.00 in0.0 mm 0.02 in0.5 mm
12:45 AM 32.9°F0.5°C 32.7°F0.4°C 99% 3.1 mph N5.0 kmh N 9.8 mph15.8 kmh 30.08 in1018.6 mb 0.06 in1.5 mm 0.00 in0.0 mm 0.02 in0.5 mm
01:00 AM 33.1°F0.6°C 32.8°F0.4°C 99% 3.1 mph NW5.0 kmh NW 8.3 mph13.4 kmh 30.08 in1018.6 mb 0.04 in1.0 mm 0.00 in0.0 mm 0.04 in1.0 mm
01:15 AM 32.9°F0.5°C 32.7°F0.4°C 99% 3.1 mph N5.0 kmh N 11.4 mph18.3 kmh 30.07 in1018.3 mb 0.07 in1.8 mm 0.12 in3.0 mm 0.09 in2.3 mm
01:30 AM 32.5°F0.3°C 32.3°F0.2°C 99% 4.5 mph N7.2 kmh N 11.4 mph18.3 kmh 30.07 in1018.3 mb 0.09 in2.3 mm 0.08 in2.0 mm 0.12 in3.0 mm
01:45 AM 32.5°F0.3°C 32.3°F0.2°C 99% 5.4 mph NNW8.7 kmh NNW 12.1 mph19.5 kmh 30.08 in1018.6 mb 0.11 in2.8 mm 0.08 in2.0 mm 0.13 in3.3 mm
02:00 AM 32.5°F0.3°C 32.3°F0.2°C 99% 5.4 mph N8.7 kmh N 9.8 mph15.8 kmh 30.08 in1018.6 mb 0.11 in2.8 mm 0.00 in0.0 mm 0.14 in3.6 mm
02:15 AM 32.7°F0.4°C 32.5°F0.3°C 99% 3.1 mph N5.0 kmh N 9.2 mph14.8 kmh 30.07 in1018.3 mb 0.07 in1.8 mm 0.00 in0.0 mm 0.17 in4.3 mm
02:30 AM 32.7°F0.4°C 32.5°F0.3°C 99% 1.6 mph N2.6 kmh N 8.3 mph13.4 kmh 30.07 in1018.3 mb 0.05 in1.3 mm 0.00 in0.0 mm 0.17 in4.3 mm
02:45 AM 32.9°F0.5°C 32.7°F0.4°C 99% 2.2 mph N3.5 kmh N 7.6 mph12.2 kmh 30.08 in1018.6 mb 0.07 in1.8 mm 0.08 in2.0 mm 0.20 in5.1 mm
03:00 AM 32.9°F0.5°C 32.7°F0.4°C 99% 3.8 mph N6.1 kmh N 6.0 mph9.7 kmh 30.07 in1018.3 mb 0.08 in2.0 mm 0.01 in0.3 mm 0.22 in5.6 mm
03:15 AM 32.9°F0.5°C 32.7°F0.4°C 99% 2.2 mph NNW3.5 kmh NNW 6.9 mph11.1 kmh 30.07 in1018.3 mb 0.07 in1.8 mm 0.00 in0.0 mm 0.24 in6.1 mm
03:30 AM 32.7°F0.4°C 32.5°F0.3°C 99% 2.2 mph N3.5 kmh N 13.6 mph21.9 kmh 30.09 in1019.0 mb 0.08 in2.0 mm 0.04 in1.0 mm 0.25 in6.4 mm
03:45 AM 32.5°F0.3°C 32.3°F0.2°C 99% 3.8 mph NNW6.1 kmh NNW 14.5 mph23.3 kmh 30.10 in1019.3 mb 0.05 in1.3 mm 0.00 in0.0 mm 0.25 in6.4 mm
04:00 AM 32.4°F0.2°C 32.1°F0.1°C 99% 2.2 mph N3.5 kmh N 13.6 mph21.9 kmh 30.11 in1019.6 mb 0.02 in0.5 mm 0.00 in0.0 mm 0.25 in6.4 mm
04:15 AM 32.4°F0.2°C 32.1°F0.1°C 99% 3.8 mph NE6.1 kmh NE 9.8 mph15.8 kmh 30.12 in1020.0 mb 0.02 in0.5 mm 0.00 in0.0 mm 0.26 in6.6 mm
04:30 AM 32.0°F0.0°C 31.8°F-0.1°C 99% 5.4 mph NE8.7 kmh NE 11.4 mph18.3 kmh 30.11 in1019.6 mb 0.01 in0.3 mm 0.00 in0.0 mm 0.26 in6.6 mm
04:45 AM 31.6°F-0.2°C 31.4°F-0.3°C 99% 6.0 mph NE9.7 kmh NE 17.4 mph28.0 kmh 30.12 in1020.0 mb 0.01 in0.3 mm 0.00 in0.0 mm 0.26 in6.6 mm
05:00 AM 31.3°F-0.4°C 31.0°F-0.6°C 99% 5.4 mph NE8.7 kmh NE 13.6 mph21.9 kmh 30.14 in1020.7 mb 0.01 in0.3 mm 0.00 in0.0 mm 0.26 in6.6 mm
05:15 AM 31.1°F-0.5°C 30.9°F-0.6°C 99% 7.6 mph NE12.2 kmh NE 10.7 mph17.2 kmh 30.14 in1020.7 mb 0.00 in0.0 mm 0.00 in0.0 mm 0.26 in6.6 mm
05:30 AM 30.9°F-0.6°C 30.7°F-0.7°C 99% 3.1 mph NE5.0 kmh NE 12.1 mph19.5 kmh 30.16 in1021.3 mb 0.00 in0.0 mm 0.00 in0.0 mm 0.26 in6.6 mm
05:45 AM 30.6°F-0.8°C 30.3°F-0.9°C 99% 4.5 mph NE7.2 kmh NE 13.6 mph21.9 kmh 30.16 in1021.3 mb 0.00 in0.0 mm 0.00 in0.0 mm 0.26 in6.6 mm
06:00 AM 30.4°F-0.9°C 30.1°F-1.1°C 99% 3.1 mph NE5.0 kmh NE 11.4 mph18.3 kmh 30.17 in1021.7 mb 0.00 in0.0 mm 0.00 in0.0 mm 0.26 in6.6 mm
06:15 AM 30.0°F-1.1°C 29.8°F-1.2°C 99% 4.5 mph NE7.2 kmh NE 13.0 mph20.9 kmh 30.18 in1022.0 mb 0.00 in0.0 mm 0.00 in0.0 mm 0.26 in6.6 mm
06:30 AM 29.7°F-1.3°C 29.4°F-1.4°C 99% 4.5 mph NE7.2 kmh NE 13.6 mph21.9 kmh 30.18 in1022.0 mb 0.00 in0.0 mm 0.00 in0.0 mm 0.26 in6.6 mm
06:45 AM 29.7°F-1.3°C 29.4°F-1.4°C 99% 3.8 mph NE6.1 kmh NE 13.0 mph20.9 kmh 30.18 in1022.0 mb 0.00 in0.0 mm 0.00 in0.0 mm 0.26 in6.6 mm
07:00 AM 29.5°F-1.4°C 29.2°F-1.6°C 99% 5.4 mph NE8.7 kmh NE 11.4 mph18.3 kmh 30.19 in1022.4 mb 0.00 in0.0 mm 0.00 in0.0 mm 0.26 in6.6 mm
07:15 AM 29.3°F-1.5°C 29.1°F-1.6°C 99% 9.2 mph NE14.8 kmh NE 15.9 mph25.6 kmh 30.21 in1023.0 mb 0.00 in0.0 mm 0.00 in0.0 mm 0.26 in6.6 mm
07:30 AM 29.1°F-1.6°C 28.9°F-1.7°C 99% 2.2 mph NE3.5 kmh NE 13.0 mph20.9 kmh 30.22 in1023.4 mb 0.00 in0.0 mm 0.00 in0.0 mm 0.26 in6.6 mm
07:45 AM 28.9°F-1.7°C 28.7°F-1.8°C 99% 5.4 mph NE8.7 kmh NE 19.7 mph31.7 kmh 30.24 in1024.0 mb 0.00 in0.0 mm 0.00 in0.0 mm 0.26 in6.6 mm
08:00 AM 28.9°F-1.7°C 28.7°F-1.8°C 99% 9.8 mph NE15.8 kmh NE 17.4 mph28.0 kmh 30.25 in1024.4 mb 0.00 in0.0 mm 0.00 in0.0 mm 0.26 in6.6 mm
08:15 AM 28.6°F-1.9°C 28.3°F-2.1°C 99% 10.7 mph NE17.2 kmh NE 19.0 mph30.6 kmh 30.26 in1024.7 mb 0.00 in0.0 mm 0.00 in0.0 mm 0.26 in6.6 mm
08:30 AM 28.6°F-1.9°C 28.3°F-2.1°C 99% 6.9 mph NE11.1 kmh NE 15.9 mph25.6 kmh 30.26 in1024.7 mb 0.00 in0.0 mm 0.00 in0.0 mm 0.26 in6.6 mm
08:45 AM 28.8°F-1.8°C 28.5°F-1.9°C 99% 3.1 mph NE5.0 kmh NE 15.2 mph24.5 kmh 30.27 in1025.1 mb 0.00 in0.0 mm 0.00 in0.0 mm 0.26 in6.6 mm
09:00 AM 28.6°F-1.9°C 28.3°F-2.1°C 99% 6.9 mph NE11.1 kmh NE 18.3 mph29.5 kmh 30.28 in1025.4 mb 0.00 in0.0 mm 0.00 in0.0 mm 0.26 in6.6 mm
09:15 AM 28.8°F-1.8°C 28.5°F-1.9°C 99% 6.9 mph NE11.1 kmh NE 13.6 mph21.9 kmh 30.27 in1025.1 mb 0.00 in0.0 mm 0.00 in0.0 mm 0.26 in6.6 mm
09:30 AM 28.8°F-1.8°C 28.5°F-1.9°C 99% 5.4 mph NE8.7 kmh NE 16.8 mph27.0 kmh 30.29 in1025.7 mb 0.00 in0.0 mm 0.00 in0.0 mm 0.26 in6.6 mm
09:45 AM 28.9°F-1.7°C 28.7°F-1.8°C 99% 8.3 mph NE13.4 kmh NE 16.8 mph27.0 kmh 30.31 in1026.4 mb 0.00 in0.0 mm 0.00 in0.0 mm 0.26 in6.6 mm
10:00 AM 29.8°F-1.2°C 29.6°F-1.3°C 99% 3.1 mph NE5.0 kmh NE 16.8 mph27.0 kmh 30.30 in1026.1 mb 0.00 in0.0 mm 0.00 in0.0 mm 0.26 in6.6 mm
10:15 AM 30.2°F-1.0°C 29.7°F-1.3°C 98% 4.5 mph NE7.2 kmh NE 15.9 mph25.6 kmh 30.31 in1026.4 mb 0.00 in0.0 mm 0.00 in0.0 mm 0.26 in6.6 mm
10:30 AM 29.8°F-1.2°C 29.1°F-1.6°C 97% 9.2 mph NE14.8 kmh NE 16.8 mph27.0 kmh 30.32 in1026.8 mb 0.00 in0.0 mm 0.00 in0.0 mm 0.26 in6.6 mm
10:45 AM 30.2°F-1.0°C 29.2°F-1.6°C 96% 6.9 mph NE11.1 kmh NE 19.7 mph31.7 kmh 30.32 in1026.8 mb 0.00 in0.0 mm 0.00 in0.0 mm 0.26 in6.6 mm
11:00 AM 31.1°F-0.5°C 29.8°F-1.2°C 95% 7.6 mph NE12.2 kmh NE 15.2 mph24.5 kmh 30.33 in1027.1 mb 0.00 in0.0 mm 0.00 in0.0 mm 0.26 in6.6 mm
11:15 AM 32.0°F0.0°C 30.7°F-0.7°C 95% 6.0 mph NE9.7 kmh NE 15.2 mph24.5 kmh 30.33 in1027.1 mb 0.00 in0.0 mm 0.00 in0.0 mm 0.26 in6.6 mm
11:30 AM 32.2°F0.1°C 30.7°F-0.7°C 94% 3.8 mph NE6.1 kmh NE 11.4 mph18.3 kmh 30.34 in1027.4 mb 0.00 in0.0 mm 0.00 in0.0 mm 0.26 in6.6 mm
11:45 AM 32.2°F0.1°C 30.4°F-0.9°C 93% 7.6 mph NE12.2 kmh NE 13.6 mph21.9 kmh 30.33 in1027.1 mb 0.00 in0.0 mm 0.00 in0.0 mm 0.26 in6.6 mm
12:00 PM 32.2°F0.1°C 30.4°F-0.9°C 93% 4.5 mph NE7.2 kmh NE 14.5 mph23.3 kmh 30.33 in1027.1 mb 0.00 in0.0 mm 0.00 in0.0 mm 0.26 in6.6 mm
12:15 PM 32.9°F0.5°C 31.1°F-0.5°C 93% 2.2 mph NE3.5 kmh NE 10.7 mph17.2 kmh 30.33 in1027.1 mb 0.00 in0.0 mm 0.00 in0.0 mm 0.26 in6.6 mm
12:30 PM 32.9°F0.5°C 31.1°F-0.5°C 93% 3.8 mph NE6.1 kmh NE 10.7 mph17.2 kmh 30.33 in1027.1 mb 0.00 in0.0 mm 0.00 in0.0 mm 0.26 in6.6 mm
12:45 PM 32.5°F0.3°C 30.8°F-0.7°C 93% 2.2 mph NE3.5 kmh NE 8.3 mph13.4 kmh 30.33 in1027.1 mb 0.00 in0.0 mm 0.00 in0.0 mm 0.26 in6.6 mm
01:00 PM 32.0°F0.0°C 30.2°F-1.0°C 93% 1.6 mph NE2.6 kmh NE 15.9 mph25.6 kmh 30.34 in1027.4 mb 0.00 in0.0 mm 0.00 in0.0 mm 0.26 in6.6 mm
01:15 PM 32.0°F0.0°C 30.0°F-1.1°C 92% 4.5 mph NE7.2 kmh NE 14.5 mph23.3 kmh 30.34 in1027.4 mb 0.00 in0.0 mm 0.00 in0.0 mm 0.26 in6.6 mm
01:30 PM 32.0°F0.0°C 30.0°F-1.1°C 92% 6.9 mph NE11.1 kmh NE 11.4 mph18.3 kmh 30.34 in1027.4 mb 0.00 in0.0 mm 0.00 in0.0 mm 0.26 in6.6 mm
01:45 PM 32.2°F0.1°C 30.4°F-0.9°C 93% 3.8 mph NE6.1 kmh NE 9.2 mph14.8 kmh 30.34 in1027.4 mb 0.00 in0.0 mm 0.00 in0.0 mm 0.26 in6.6 mm
02:00 PM 32.2°F0.1°C 30.4°F-0.9°C 93% 6.0 mph NE9.7 kmh NE 11.4 mph18.3 kmh 30.34 in1027.4 mb 0.00 in0.0 mm 0.00 in0.0 mm 0.26 in6.6 mm
02:15 PM 32.4°F0.2°C 30.6°F-0.8°C 93% 3.1 mph NE5.0 kmh NE 9.8 mph15.8 kmh 30.35 in1027.8 mb 0.00 in0.0 mm 0.00 in0.0 mm 0.26 in6.6 mm
02:30 PM 32.5°F0.3°C 30.5°F-0.8°C 92% 3.1 mph NE5.0 kmh NE 11.4 mph18.3 kmh 30.35 in1027.8 mb 0.00 in0.0 mm 0.00 in0.0 mm 0.26 in6.6 mm
02:45 PM 32.7°F0.4°C 30.7°F-0.7°C 92% 3.1 mph NE5.0 kmh NE 13.6 mph21.9 kmh 30.36 in1028.1 mb 0.00 in0.0 mm 0.00 in0.0 mm 0.26 in6.6 mm
03:00 PM 32.7°F0.4°C 30.7°F-0.7°C 92% 2.2 mph NE3.5 kmh NE 10.7 mph17.2 kmh 30.36 in1028.1 mb 0.00 in0.0 mm 0.00 in0.0 mm 0.26 in6.6 mm
03:15 PM 32.5°F0.3°C 29.9°F-1.2°C 90% 1.6 mph N2.6 kmh N 11.4 mph18.3 kmh 30.37 in1028.4 mb 0.00 in0.0 mm 0.00 in0.0 mm 0.26 in6.6 mm
03:30 PM 32.2°F0.1°C 29.6°F-1.3°C 90% 4.5 mph N7.2 kmh N 13.0 mph20.9 kmh 30.37 in1028.4 mb 0.00 in0.0 mm 0.00 in0.0 mm 0.26 in6.6 mm
03:45 PM 32.2°F0.1°C 29.9°F-1.2°C 91% 3.8 mph N6.1 kmh N 9.8 mph15.8 kmh 30.38 in1028.8 mb 0.00 in0.0 mm 0.00 in0.0 mm 0.26 in6.6 mm
04:00 PM 32.2°F0.1°C 29.9°F-1.2°C 91% 3.1 mph N5.0 kmh N 11.4 mph18.3 kmh 30.39 in1029.1 mb 0.00 in0.0 mm 0.00 in0.0 mm 0.26 in6.6 mm
04:15 PM 32.0°F0.0°C 29.7°F-1.3°C 91% 3.1 mph N5.0 kmh N 8.3 mph13.4 kmh 30.39 in1029.1 mb 0.00 in0.0 mm 0.00 in0.0 mm 0.26 in6.6 mm
04:30 PM 31.6°F-0.2°C 29.3°F-1.5°C 91% 3.8 mph NNW6.1 kmh NNW 12.1 mph19.5 kmh 30.39 in1029.1 mb 0.00 in0.0 mm 0.00 in0.0 mm 0.26 in6.6 mm
04:45 PM 31.6°F-0.2°C 29.6°F-1.3°C 92% 4.5 mph NNW7.2 kmh NNW 9.8 mph15.8 kmh 30.40 in1029.5 mb 0.00 in0.0 mm 0.00 in0.0 mm 0.26 in6.6 mm
05:00 PM 31.5°F-0.3°C 29.4°F-1.4°C 92% 5.4 mph N8.7 kmh N 10.7 mph17.2 kmh 30.39 in1029.1 mb 0.00 in0.0 mm 0.00 in0.0 mm 0.26 in6.6 mm
05:15 PM 31.3°F-0.4°C 29.2°F-1.6°C 92% 2.2 mph N3.5 kmh N 8.3 mph13.4 kmh 30.40 in1029.5 mb 0.00 in0.0 mm 0.00 in0.0 mm 0.26 in6.6 mm
05:30 PM 31.1°F-0.5°C 29.1°F-1.6°C 92% 3.8 mph N6.1 kmh N 10.7 mph17.2 kmh 30.39 in1029.1 mb 0.00 in0.0 mm 0.00 in0.0 mm 0.26 in6.6 mm
05:45 PM 30.9°F-0.6°C 28.9°F-1.7°C 92% 2.2 mph N3.5 kmh N 10.7 mph17.2 kmh 30.40 in1029.5 mb 0.00 in0.0 mm 0.00 in0.0 mm 0.26 in6.6 mm
06:00 PM 30.7°F-0.7°C 29.0°F-1.7°C 93% 2.2 mph N3.5 kmh N 7.6 mph12.2 kmh 30.42 in1030.1 mb 0.00 in0.0 mm 0.00 in0.0 mm 0.26 in6.6 mm
06:15 PM 30.7°F-0.7°C 29.0°F-1.7°C 93% 3.1 mph N5.0 kmh N 8.3 mph13.4 kmh 30.42 in1030.1 mb 0.00 in0.0 mm 0.00 in0.0 mm 0.26 in6.6 mm
06:30 PM 30.7°F-0.7°C 29.0°F-1.7°C 93% 1.6 mph N2.6 kmh N 3.1 mph5.0 kmh 30.43 in1030.5 mb 0.00 in0.0 mm 0.00 in0.0 mm 0.26 in6.6 mm
06:45 PM 30.6°F-0.8°C 28.8°F-1.8°C 93% 0.7 mph NNE1.1 kmh NNE 7.6 mph12.2 kmh 30.44 in1030.8 mb 0.00 in0.0 mm 0.00 in0.0 mm 0.26 in6.6 mm
07:00 PM 30.6°F-0.8°C 28.8°F-1.8°C 93% 0.7 mph NE1.1 kmh NE 4.5 mph7.2 kmh 30.45 in1031.2 mb 0.00 in0.0 mm 0.00 in0.0 mm 0.26 in6.6 mm
07:15 PM 30.4°F-0.9°C 28.6°F-1.9°C 93% 0.7 mph NE1.1 kmh NE 3.1 mph5.0 kmh 30.45 in1031.2 mb 0.00 in0.0 mm 0.00 in0.0 mm 0.26 in6.6 mm
07:30 PM 29.8°F-1.2°C 28.1°F-2.2°C 93% Calm Calm 3.8 mph6.1 kmh 30.45 in1031.2 mb 0.00 in0.0 mm 0.00 in0.0 mm 0.26 in6.6 mm
07:45 PM 29.1°F-1.6°C 27.4°F-2.6°C 93% Calm Calm 1.6 mph2.6 kmh 30.45 in1031.2 mb 0.00 in0.0 mm 0.00 in0.0 mm 0.26 in6.6 mm
08:00 PM 28.2°F-2.1°C 26.7°F-2.9°C 94% Calm Calm -- 30.45 in1031.2 mb 0.00 in0.0 mm 0.00 in0.0 mm 0.26 in6.6 mm
08:15 PM 27.3°F-2.6°C 25.8°F-3.4°C 94% Calm Calm 0.7 mph1.1 kmh 30.45 in1031.2 mb 0.00 in0.0 mm 0.00 in0.0 mm 0.26 in6.6 mm
08:30 PM 26.6°F-3.0°C 25.4°F-3.7°C 95% Calm Calm 0.7 mph1.1 kmh 30.45 in1031.2 mb 0.00 in0.0 mm 0.00 in0.0 mm 0.26 in6.6 mm
08:45 PM 26.2°F-3.2°C 25.3°F-3.7°C 96% Calm Calm 1.6 mph2.6 kmh 30.46 in1031.5 mb 0.00 in0.0 mm 0.00 in0.0 mm 0.26 in6.6 mm
09:00 PM 25.5°F-3.6°C 24.6°F-4.1°C 96% Calm Calm -- 30.46 in1031.5 mb 0.00 in0.0 mm 0.00 in0.0 mm 0.26 in6.6 mm
09:15 PM 25.3°F-3.7°C 24.6°F-4.1°C 97% 0.7 mph NE1.1 kmh NE 2.2 mph3.5 kmh 30.46 in1031.5 mb 0.00 in0.0 mm 0.00 in0.0 mm 0.26 in6.6 mm
09:30 PM 25.2°F-3.8°C 24.7°F-4.1°C 98% Calm Calm -- 30.47 in1031.8 mb 0.00 in0.0 mm 0.00 in0.0 mm 0.26 in6.6 mm
09:45 PM 24.6°F-4.1°C 24.2°F-4.3°C 98% Calm Calm 0.7 mph1.1 kmh 30.48 in1032.2 mb 0.00 in0.0 mm 0.00 in0.0 mm 0.26 in6.6 mm
10:00 PM 24.4°F-4.2°C 24.2°F-4.3°C 99% Calm Calm 1.6 mph2.6 kmh 30.48 in1032.2 mb 0.00 in0.0 mm 0.00 in0.0 mm 0.26 in6.6 mm
10:15 PM 24.1°F-4.4°C 23.9°F-4.5°C 99% Calm Calm 0.7 mph1.1 kmh 30.48 in1032.2 mb 0.00 in0.0 mm 0.00 in0.0 mm 0.26 in6.6 mm
10:30 PM 23.9°F-4.5°C 23.7°F-4.6°C 99% Calm Calm 0.7 mph1.1 kmh 30.48 in1032.2 mb 0.00 in0.0 mm 0.00 in0.0 mm 0.26 in6.6 mm
10:45 PM 23.7°F-4.6°C 23.5°F-4.7°C 99% Calm Calm -- 30.47 in1031.8 mb 0.00 in0.0 mm 0.00 in0.0 mm 0.26 in6.6 mm
11:00 PM 23.7°F-4.6°C 23.5°F-4.7°C 99% Calm Calm 0.7 mph1.1 kmh 30.47 in1031.8 mb 0.00 in0.0 mm 0.00 in0.0 mm 0.26 in6.6 mm
11:15 PM 23.4°F-4.8°C 23.1°F-4.9°C 99% Calm Calm -- 30.48 in1032.2 mb 0.00 in0.0 mm 0.00 in0.0 mm 0.26 in6.6 mm
11:30 PM 23.2°F-4.9°C 23.0°F-5.0°C 99% Calm Calm 1.6 mph2.6 kmh 30.47 in1031.8 mb 0.00 in0.0 mm 0.00 in0.0 mm 0.26 in6.6 mm
11:45 PM 23.0°F-5.0°C 22.8°F-5.1°C 99% Calm Calm 2.2 mph3.5 kmh 30.47 in1031.8 mb 0.00 in0.0 mm 0.00 in0.0 mm 0.26 in6.6 mm